sensor_id;sensor_type;location;lat;lon;timestamp;P1;durP1;ratioP1;P2;durP2;ratioP2
15132;SDS011;7667;51.232;17.110;2023-08-06T00:00:41;2.50;;;2.30;;
15132;SDS011;7667;51.232;17.110;2023-08-06T00:03:09;2.50;;;2.30;;
15132;SDS011;7667;51.232;17.110;2023-08-06T00:05:37;2.30;;;2.20;;
15132;SDS011;7667;51.232;17.110;2023-08-06T00:08:09;2.63;;;2.00;;
15132;SDS011;7667;51.232;17.110;2023-08-06T00:10:36;2.20;;;2.00;;
15132;SDS011;7667;51.232;17.110;2023-08-06T00:13:07;2.53;;;2.33;;
15132;SDS011;7667;51.232;17.110;2023-08-06T00:15:34;2.37;;;2.17;;
15132;SDS011;7667;51.232;17.110;2023-08-06T00:18:02;2.67;;;2.20;;
15132;SDS011;7667;51.232;17.110;2023-08-06T00:20:30;2.30;;;2.20;;
15132;SDS011;7667;51.232;17.110;2023-08-06T00:22:57;2.17;;;2.07;;
15132;SDS011;7667;51.232;17.110;2023-08-06T00:25:42;2.70;;;2.50;;
15132;SDS011;7667;51.232;17.110;2023-08-06T00:28:10;2.60;;;2.30;;
15132;SDS011;7667;51.232;17.110;2023-08-06T00:30:37;2.10;;;2.00;;
15132;SDS011;7667;51.232;17.110;2023-08-06T00:33:05;2.50;;;2.00;;
15132;SDS011;7667;51.232;17.110;2023-08-06T00:35:33;2.10;;;2.00;;
15132;SDS011;7667;51.232;17.110;2023-08-06T00:38:01;1.97;;;1.87;;
15132;SDS011;7667;51.232;17.110;2023-08-06T00:40:28;1.80;;;1.70;;
15132;SDS011;7667;51.232;17.110;2023-08-06T00:42:57;2.00;;;1.90;;
15132;SDS011;7667;51.232;17.110;2023-08-06T00:45:24;1.77;;;1.67;;
15132;SDS011;7667;51.232;17.110;2023-08-06T00:47:52;1.90;;;1.80;;
15132;SDS011;7667;51.232;17.110;2023-08-06T00:50:20;1.80;;;1.70;;
15132;SDS011;7667;51.232;17.110;2023-08-06T00:52:49;2.17;;;1.80;;
15132;SDS011;7667;51.232;17.110;2023-08-06T00:55:17;1.80;;;1.70;;
15132;SDS011;7667;51.232;17.110;2023-08-06T00:57:44;1.97;;;1.63;;
15132;SDS011;7667;51.232;17.110;2023-08-06T01:00:12;1.80;;;1.70;;
15132;SDS011;7667;51.232;17.110;2023-08-06T01:02:40;2.00;;;1.80;;
15132;SDS011;7667;51.232;17.110;2023-08-06T01:05:07;1.70;;;1.60;;
15132;SDS011;7667;51.232;17.110;2023-08-06T01:13:46;1.53;;;1.40;;
15132;SDS011;7667;51.232;17.110;2023-08-06T01:16:20;1.47;;;1.30;;
15132;SDS011;7667;51.232;17.110;2023-08-06T01:18:48;1.30;;;1.20;;
15132;SDS011;7667;51.232;17.110;2023-08-06T01:21:16;1.40;;;1.03;;
15132;SDS011;7667;51.232;17.110;2023-08-06T01:23:45;1.67;;;1.10;;
15132;SDS011;7667;51.232;17.110;2023-08-06T01:31:45;1.10;;;1.00;;
15132;SDS011;7667;51.232;17.110;2023-08-06T01:34:23;1.13;;;1.03;;
15132;SDS011;7667;51.232;17.110;2023-08-06T01:36:52;0.87;;;0.80;;
15132;SDS011;7667;51.232;17.110;2023-08-06T01:39:20;1.00;;;0.97;;
15132;SDS011;7667;51.232;17.110;2023-08-06T01:41:48;1.10;;;1.00;;
15132;SDS011;7667;51.232;17.110;2023-08-06T01:44:16;1.10;;;1.10;;
15132;SDS011;7667;51.232;17.110;2023-08-06T01:46:44;1.00;;;0.90;;
15132;SDS011;7667;51.232;17.110;2023-08-06T01:49:12;2.60;;;1.17;;
15132;SDS011;7667;51.232;17.110;2023-08-06T01:51:39;1.53;;;1.10;;
15132;SDS011;7667;51.232;17.110;2023-08-06T01:54:07;1.17;;;1.07;;
15132;SDS011;7667;51.232;17.110;2023-08-06T01:56:34;1.20;;;1.10;;
15132;SDS011;7667;51.232;17.110;2023-08-06T01:59:02;1.10;;;1.00;;
15132;SDS011;7667;51.232;17.110;2023-08-06T02:01:31;1.07;;;1.00;;
15132;SDS011;7667;51.232;17.110;2023-08-06T02:03:58;1.00;;;1.00;;
15132;SDS011;7667;51.232;17.110;2023-08-06T02:06:26;0.80;;;0.80;;
15132;SDS011;7667;51.232;17.110;2023-08-06T02:08:53;0.80;;;0.80;;
15132;SDS011;7667;51.232;17.110;2023-08-06T02:11:21;0.97;;;0.90;;
15132;SDS011;7667;51.232;17.110;2023-08-06T02:13:48;0.77;;;0.70;;
15132;SDS011;7667;51.232;17.110;2023-08-06T02:16:16;0.70;;;0.70;;
15132;SDS011;7667;51.232;17.110;2023-08-06T02:18:43;0.80;;;0.80;;
15132;SDS011;7667;51.232;17.110;2023-08-06T02:21:11;1.33;;;0.67;;
15132;SDS011;7667;51.232;17.110;2023-08-06T02:23:38;1.07;;;0.70;;
15132;SDS011;7667;51.232;17.110;2023-08-06T02:26:06;0.50;;;0.50;;
15132;SDS011;7667;51.232;17.110;2023-08-06T02:28:34;0.63;;;0.63;;
15132;SDS011;7667;51.232;17.110;2023-08-06T02:31:01;0.63;;;0.63;;
15132;SDS011;7667;51.232;17.110;2023-08-06T02:33:29;0.50;;;0.50;;
15132;SDS011;7667;51.232;17.110;2023-08-06T02:36:00;1.03;;;0.70;;
15132;SDS011;7667;51.232;17.110;2023-08-06T02:38:31;0.60;;;0.60;;
15132;SDS011;7667;51.232;17.110;2023-08-06T02:41:01;1.60;;;0.60;;
15132;SDS011;7667;51.232;17.110;2023-08-06T02:43:30;0.77;;;0.77;;
15132;SDS011;7667;51.232;17.110;2023-08-06T02:45:59;0.87;;;0.60;;
15132;SDS011;7667;51.232;17.110;2023-08-06T02:48:27;0.73;;;0.50;;
15132;SDS011;7667;51.232;17.110;2023-08-06T02:50:58;0.70;;;0.60;;
15132;SDS011;7667;51.232;17.110;2023-08-06T02:53:26;0.60;;;0.60;;
15132;SDS011;7667;51.232;17.110;2023-08-06T02:55:54;0.60;;;0.60;;
15132;SDS011;7667;51.232;17.110;2023-08-06T02:58:22;0.50;;;0.50;;
15132;SDS011;7667;51.232;17.110;2023-08-06T03:01:03;0.77;;;0.60;;
15132;SDS011;7667;51.232;17.110;2023-08-06T03:03:34;0.50;;;0.50;;
15132;SDS011;7667;51.232;17.110;2023-08-06T03:06:01;0.40;;;0.40;;
15132;SDS011;7667;51.232;17.110;2023-08-06T03:08:29;0.30;;;0.30;;
15132;SDS011;7667;51.232;17.110;2023-08-06T03:10:57;0.77;;;0.50;;
15132;SDS011;7667;51.232;17.110;2023-08-06T03:13:25;0.40;;;0.40;;
15132;SDS011;7667;51.232;17.110;2023-08-06T03:15:53;0.40;;;0.40;;
15132;SDS011;7667;51.232;17.110;2023-08-06T03:18:25;0.77;;;0.53;;
15132;SDS011;7667;51.232;17.110;2023-08-06T03:20:53;1.70;;;0.70;;
15132;SDS011;7667;51.232;17.110;2023-08-06T03:23:21;0.50;;;0.50;;
15132;SDS011;7667;51.232;17.110;2023-08-06T03:25:49;0.50;;;0.50;;
15132;SDS011;7667;51.232;17.110;2023-08-06T03:28:16;0.50;;;0.47;;
15132;SDS011;7667;51.232;17.110;2023-08-06T03:30:44;0.47;;;0.47;;
15132;SDS011;7667;51.232;17.110;2023-08-06T03:33:12;0.60;;;0.53;;
15132;SDS011;7667;51.232;17.110;2023-08-06T03:35:39;0.50;;;0.50;;
15132;SDS011;7667;51.232;17.110;2023-08-06T03:38:07;0.50;;;0.50;;
15132;SDS011;7667;51.232;17.110;2023-08-06T03:40:35;0.50;;;0.50;;
15132;SDS011;7667;51.232;17.110;2023-08-06T03:43:02;0.60;;;0.60;;
15132;SDS011;7667;51.232;17.110;2023-08-06T03:45:30;0.40;;;0.40;;
15132;SDS011;7667;51.232;17.110;2023-08-06T03:47:57;0.60;;;0.60;;
15132;SDS011;7667;51.232;17.110;2023-08-06T03:50:25;0.40;;;0.40;;
15132;SDS011;7667;51.232;17.110;2023-08-06T03:52:53;0.50;;;0.50;;
15132;SDS011;7667;51.232;17.110;2023-08-06T03:55:20;0.40;;;0.40;;
15132;SDS011;7667;51.232;17.110;2023-08-06T03:57:48;0.20;;;0.20;;
15132;SDS011;7667;51.232;17.110;2023-08-06T04:00:16;0.40;;;0.40;;
15132;SDS011;7667;51.232;17.110;2023-08-06T04:02:43;0.30;;;0.30;;
15132;SDS011;7667;51.232;17.110;2023-08-06T04:05:11;0.30;;;0.30;;
15132;SDS011;7667;51.232;17.110;2023-08-06T04:07:39;0.50;;;0.50;;
15132;SDS011;7667;51.232;17.110;2023-08-06T04:10:07;0.40;;;0.40;;
15132;SDS011;7667;51.232;17.110;2023-08-06T04:12:35;0.30;;;0.30;;
15132;SDS011;7667;51.232;17.110;2023-08-06T04:15:05;0.50;;;0.33;;
15132;SDS011;7667;51.232;17.110;2023-08-06T04:17:33;0.20;;;0.20;;
15132;SDS011;7667;51.232;17.110;2023-08-06T04:20:01;0.20;;;0.20;;
15132;SDS011;7667;51.232;17.110;2023-08-06T04:22:29;0.23;;;0.23;;
15132;SDS011;7667;51.232;17.110;2023-08-06T04:24:56;0.40;;;0.40;;
15132;SDS011;7667;51.232;17.110;2023-08-06T04:27:24;1.00;;;0.40;;
15132;SDS011;7667;51.232;17.110;2023-08-06T04:29:52;0.93;;;0.40;;
15132;SDS011;7667;51.232;17.110;2023-08-06T04:32:19;0.57;;;0.37;;
15132;SDS011;7667;51.232;17.110;2023-08-06T04:34:47;0.80;;;0.40;;
15132;SDS011;7667;51.232;17.110;2023-08-06T04:37:15;0.57;;;0.57;;
15132;SDS011;7667;51.232;17.110;2023-08-06T04:39:42;1.13;;;0.60;;
15132;SDS011;7667;51.232;17.110;2023-08-06T04:42:10;0.40;;;0.40;;
15132;SDS011;7667;51.232;17.110;2023-08-06T04:44:37;0.47;;;0.47;;
15132;SDS011;7667;51.232;17.110;2023-08-06T04:47:05;0.50;;;0.50;;
15132;SDS011;7667;51.232;17.110;2023-08-06T04:49:33;0.43;;;0.40;;
15132;SDS011;7667;51.232;17.110;2023-08-06T04:52:00;0.50;;;0.37;;
15132;SDS011;7667;51.232;17.110;2023-08-06T04:54:28;0.43;;;0.40;;
15132;SDS011;7667;51.232;17.110;2023-08-06T04:56:55;0.30;;;0.30;;
15132;SDS011;7667;51.232;17.110;2023-08-06T04:59:23;0.30;;;0.30;;
15132;SDS011;7667;51.232;17.110;2023-08-06T05:01:51;0.30;;;0.30;;
15132;SDS011;7667;51.232;17.110;2023-08-06T05:04:19;0.37;;;0.37;;
15132;SDS011;7667;51.232;17.110;2023-08-06T05:06:47;0.20;;;0.20;;
15132;SDS011;7667;51.232;17.110;2023-08-06T05:09:15;0.13;;;0.13;;
15132;SDS011;7667;51.232;17.110;2023-08-06T05:11:43;0.97;;;0.23;;
15132;SDS011;7667;51.232;17.110;2023-08-06T05:14:10;0.20;;;0.10;;
15132;SDS011;7667;51.232;17.110;2023-08-06T05:16:38;0.30;;;0.30;;
15132;SDS011;7667;51.232;17.110;2023-08-06T05:19:06;0.20;;;0.10;;
15132;SDS011;7667;51.232;17.110;2023-08-06T05:21:34;0.20;;;0.20;;
15132;SDS011;7667;51.232;17.110;2023-08-06T05:24:01;0.10;;;0.10;;
15132;SDS011;7667;51.232;17.110;2023-08-06T05:26:29;0.17;;;0.17;;
15132;SDS011;7667;51.232;17.110;2023-08-06T05:28:56;0.10;;;0.10;;
15132;SDS011;7667;51.232;17.110;2023-08-06T05:31:24;0.30;;;0.20;;
15132;SDS011;7667;51.232;17.110;2023-08-06T05:33:52;0.53;;;0.27;;
15132;SDS011;7667;51.232;17.110;2023-08-06T05:36:20;0.20;;;0.20;;
15132;SDS011;7667;51.232;17.110;2023-08-06T05:38:48;0.20;;;0.20;;
15132;SDS011;7667;51.232;17.110;2023-08-06T05:41:15;0.33;;;0.30;;
15132;SDS011;7667;51.232;17.110;2023-08-06T05:43:43;1.03;;;0.20;;
15132;SDS011;7667;51.232;17.110;2023-08-06T05:46:10;0.20;;;0.20;;
15132;SDS011;7667;51.232;17.110;2023-08-06T05:48:38;0.40;;;0.40;;
15132;SDS011;7667;51.232;17.110;2023-08-06T05:51:06;0.20;;;0.20;;
15132;SDS011;7667;51.232;17.110;2023-08-06T05:53:34;0.47;;;0.20;;
15132;SDS011;7667;51.232;17.110;2023-08-06T05:56:01;0.30;;;0.20;;
15132;SDS011;7667;51.232;17.110;2023-08-06T05:58:29;0.30;;;0.30;;
15132;SDS011;7667;51.232;17.110;2023-08-06T06:00:57;0.40;;;0.30;;
15132;SDS011;7667;51.232;17.110;2023-08-06T06:03:24;0.30;;;0.30;;
15132;SDS011;7667;51.232;17.110;2023-08-06T06:05:52;0.30;;;0.30;;
15132;SDS011;7667;51.232;17.110;2023-08-06T06:08:20;0.57;;;0.53;;
15132;SDS011;7667;51.232;17.110;2023-08-06T06:10:47;0.43;;;0.30;;
15132;SDS011;7667;51.232;17.110;2023-08-06T06:13:15;0.20;;;0.20;;
15132;SDS011;7667;51.232;17.110;2023-08-06T06:15:42;0.20;;;0.20;;
15132;SDS011;7667;51.232;17.110;2023-08-06T06:18:10;0.27;;;0.20;;
15132;SDS011;7667;51.232;17.110;2023-08-06T06:20:37;0.97;;;0.20;;
15132;SDS011;7667;51.232;17.110;2023-08-06T06:23:05;0.20;;;0.20;;
15132;SDS011;7667;51.232;17.110;2023-08-06T06:25:33;0.20;;;0.20;;
15132;SDS011;7667;51.232;17.110;2023-08-06T06:28:00;1.10;;;0.20;;
15132;SDS011;7667;51.232;17.110;2023-08-06T06:30:27;0.40;;;0.40;;
15132;SDS011;7667;51.232;17.110;2023-08-06T06:32:55;0.30;;;0.30;;
15132;SDS011;7667;51.232;17.110;2023-08-06T06:35:23;0.23;;;0.23;;
15132;SDS011;7667;51.232;17.110;2023-08-06T06:37:50;0.20;;;0.20;;
15132;SDS011;7667;51.232;17.110;2023-08-06T06:40:18;0.27;;;0.20;;
15132;SDS011;7667;51.232;17.110;2023-08-06T06:42:45;0.27;;;0.27;;
15132;SDS011;7667;51.232;17.110;2023-08-06T06:45:13;0.20;;;0.20;;
15132;SDS011;7667;51.232;17.110;2023-08-06T06:47:41;1.10;;;0.30;;
15132;SDS011;7667;51.232;17.110;2023-08-06T06:50:08;0.60;;;0.40;;
15132;SDS011;7667;51.232;17.110;2023-08-06T06:52:36;0.40;;;0.40;;
15132;SDS011;7667;51.232;17.110;2023-08-06T06:55:04;0.30;;;0.20;;
15132;SDS011;7667;51.232;17.110;2023-08-06T06:57:32;0.40;;;0.40;;
15132;SDS011;7667;51.232;17.110;2023-08-06T06:59:59;0.30;;;0.30;;
15132;SDS011;7667;51.232;17.110;2023-08-06T07:02:31;0.27;;;0.27;;
15132;SDS011;7667;51.232;17.110;2023-08-06T07:04:58;0.10;;;0.10;;
15132;SDS011;7667;51.232;17.110;2023-08-06T07:07:26;0.20;;;0.20;;
15132;SDS011;7667;51.232;17.110;2023-08-06T07:09:53;0.40;;;0.30;;
15132;SDS011;7667;51.232;17.110;2023-08-06T07:12:21;0.90;;;0.43;;
15132;SDS011;7667;51.232;17.110;2023-08-06T07:14:48;0.27;;;0.27;;
15132;SDS011;7667;51.232;17.110;2023-08-06T07:17:16;0.30;;;0.23;;
15132;SDS011;7667;51.232;17.110;2023-08-06T07:19:44;0.30;;;0.30;;
15132;SDS011;7667;51.232;17.110;2023-08-06T07:22:11;0.20;;;0.20;;
15132;SDS011;7667;51.232;17.110;2023-08-06T07:24:39;0.30;;;0.30;;
15132;SDS011;7667;51.232;17.110;2023-08-06T07:27:06;0.10;;;0.10;;
15132;SDS011;7667;51.232;17.110;2023-08-06T07:29:34;0.30;;;0.30;;
15132;SDS011;7667;51.232;17.110;2023-08-06T07:32:02;0.30;;;0.30;;
15132;SDS011;7667;51.232;17.110;2023-08-06T07:34:29;0.40;;;0.40;;
15132;SDS011;7667;51.232;17.110;2023-08-06T07:36:57;0.60;;;0.43;;
15132;SDS011;7667;51.232;17.110;2023-08-06T07:39:24;0.30;;;0.30;;
15132;SDS011;7667;51.232;17.110;2023-08-06T07:41:52;0.20;;;0.13;;
15132;SDS011;7667;51.232;17.110;2023-08-06T07:44:20;0.30;;;0.20;;
15132;SDS011;7667;51.232;17.110;2023-08-06T07:46:48;0.20;;;0.20;;
15132;SDS011;7667;51.232;17.110;2023-08-06T07:49:15;0.40;;;0.30;;
15132;SDS011;7667;51.232;17.110;2023-08-06T07:51:43;0.20;;;0.20;;
15132;SDS011;7667;51.232;17.110;2023-08-06T07:54:10;0.20;;;0.20;;
15132;SDS011;7667;51.232;17.110;2023-08-06T07:56:38;0.30;;;0.30;;
15132;SDS011;7667;51.232;17.110;2023-08-06T07:59:05;0.40;;;0.30;;
15132;SDS011;7667;51.232;17.110;2023-08-06T08:01:33;0.20;;;0.20;;
15132;SDS011;7667;51.232;17.110;2023-08-06T08:04:01;0.30;;;0.30;;
15132;SDS011;7667;51.232;17.110;2023-08-06T08:06:28;0.23;;;0.23;;
15132;SDS011;7667;51.232;17.110;2023-08-06T08:08:56;0.23;;;0.23;;
15132;SDS011;7667;51.232;17.110;2023-08-06T08:11:23;0.60;;;0.30;;
15132;SDS011;7667;51.232;17.110;2023-08-06T08:13:52;0.47;;;0.43;;
15132;SDS011;7667;51.232;17.110;2023-08-06T08:16:20;0.30;;;0.30;;
15132;SDS011;7667;51.232;17.110;2023-08-06T08:18:48;0.40;;;0.40;;
15132;SDS011;7667;51.232;17.110;2023-08-06T08:21:15;0.30;;;0.30;;
15132;SDS011;7667;51.232;17.110;2023-08-06T08:23:43;0.83;;;0.50;;
15132;SDS011;7667;51.232;17.110;2023-08-06T08:26:10;0.53;;;0.50;;
15132;SDS011;7667;51.232;17.110;2023-08-06T08:28:38;0.57;;;0.57;;
15132;SDS011;7667;51.232;17.110;2023-08-06T08:31:09;0.50;;;0.50;;
15132;SDS011;7667;51.232;17.110;2023-08-06T08:33:38;1.73;;;0.73;;
15132;SDS011;7667;51.232;17.110;2023-08-06T08:36:06;0.60;;;0.60;;
15132;SDS011;7667;51.232;17.110;2023-08-06T08:38:33;0.70;;;0.70;;
15132;SDS011;7667;51.232;17.110;2023-08-06T08:41:01;0.60;;;0.60;;
15132;SDS011;7667;51.232;17.110;2023-08-06T08:43:28;0.77;;;0.70;;
15132;SDS011;7667;51.232;17.110;2023-08-06T08:45:57;0.63;;;0.60;;
15132;SDS011;7667;51.232;17.110;2023-08-06T08:48:25;0.63;;;0.63;;
15132;SDS011;7667;51.232;17.110;2023-08-06T08:50:54;0.97;;;0.77;;
15132;SDS011;7667;51.232;17.110;2023-08-06T08:53:22;0.73;;;0.73;;
15132;SDS011;7667;51.232;17.110;2023-08-06T08:55:50;0.77;;;0.77;;
15132;SDS011;7667;51.232;17.110;2023-08-06T08:58:19;0.73;;;0.73;;
15132;SDS011;7667;51.232;17.110;2023-08-06T09:00:47;0.60;;;0.60;;
15132;SDS011;7667;51.232;17.110;2023-08-06T09:03:15;0.80;;;0.80;;
15132;SDS011;7667;51.232;17.110;2023-08-06T09:05:44;0.90;;;0.90;;
15132;SDS011;7667;51.232;17.110;2023-08-06T09:08:17;0.80;;;0.80;;
15132;SDS011;7667;51.232;17.110;2023-08-06T09:10:48;0.80;;;0.80;;
15132;SDS011;7667;51.232;17.110;2023-08-06T09:13:16;0.70;;;0.70;;
15132;SDS011;7667;51.232;17.110;2023-08-06T09:15:44;0.60;;;0.60;;
15132;SDS011;7667;51.232;17.110;2023-08-06T09:18:12;0.60;;;0.60;;
15132;SDS011;7667;51.232;17.110;2023-08-06T09:20:39;0.70;;;0.70;;
15132;SDS011;7667;51.232;17.110;2023-08-06T09:23:08;0.80;;;0.80;;
15132;SDS011;7667;51.232;17.110;2023-08-06T09:25:40;0.60;;;0.60;;
15132;SDS011;7667;51.232;17.110;2023-08-06T09:28:07;1.03;;;0.70;;
15132;SDS011;7667;51.232;17.110;2023-08-06T09:30:37;0.50;;;0.50;;
15132;SDS011;7667;51.232;17.110;2023-08-06T09:33:08;2.30;;;0.60;;
15132;SDS011;7667;51.232;17.110;2023-08-06T09:35:42;0.50;;;0.50;;
15132;SDS011;7667;51.232;17.110;2023-08-06T09:38:10;0.70;;;0.70;;
15132;SDS011;7667;51.232;17.110;2023-08-06T09:40:38;0.50;;;0.50;;
15132;SDS011;7667;51.232;17.110;2023-08-06T09:43:06;0.73;;;0.70;;
15132;SDS011;7667;51.232;17.110;2023-08-06T09:45:35;0.60;;;0.60;;
15132;SDS011;7667;51.232;17.110;2023-08-06T09:48:05;0.60;;;0.60;;
15132;SDS011;7667;51.232;17.110;2023-08-06T09:50:36;0.60;;;0.60;;
15132;SDS011;7667;51.232;17.110;2023-08-06T09:53:06;0.70;;;0.70;;
15132;SDS011;7667;51.232;17.110;2023-08-06T09:55:35;0.60;;;0.60;;
15132;SDS011;7667;51.232;17.110;2023-08-06T09:58:03;0.50;;;0.50;;
15132;SDS011;7667;51.232;17.110;2023-08-06T10:00:32;0.50;;;0.50;;
15132;SDS011;7667;51.232;17.110;2023-08-06T10:03:05;0.50;;;0.50;;
15132;SDS011;7667;51.232;17.110;2023-08-06T10:05:35;0.40;;;0.40;;
15132;SDS011;7667;51.232;17.110;2023-08-06T10:08:05;0.53;;;0.40;;
15132;SDS011;7667;51.232;17.110;2023-08-06T10:10:33;0.63;;;0.50;;
15132;SDS011;7667;51.232;17.110;2023-08-06T10:13:02;0.40;;;0.40;;
15132;SDS011;7667;51.232;17.110;2023-08-06T10:15:31;0.60;;;0.60;;
15132;SDS011;7667;51.232;17.110;2023-08-06T10:17:59;0.60;;;0.60;;
15132;SDS011;7667;51.232;17.110;2023-08-06T10:20:32;1.17;;;0.50;;
15132;SDS011;7667;51.232;17.110;2023-08-06T10:23:04;0.70;;;0.70;;
15132;SDS011;7667;51.232;17.110;2023-08-06T10:25:34;0.77;;;0.53;;
15132;SDS011;7667;51.232;17.110;2023-08-06T10:28:08;0.80;;;0.47;;
15132;SDS011;7667;51.232;17.110;2023-08-06T10:30:45;1.03;;;0.70;;
15132;SDS011;7667;51.232;17.110;2023-08-06T10:33:14;2.23;;;0.60;;
15132;SDS011;7667;51.232;17.110;2023-08-06T10:35:44;0.50;;;0.50;;
15132;SDS011;7667;51.232;17.110;2023-08-06T10:46:09;0.70;;;0.60;;
15132;SDS011;7667;51.232;17.110;2023-08-06T10:48:39;0.60;;;0.60;;
15132;SDS011;7667;51.232;17.110;2023-08-06T10:51:12;0.43;;;0.43;;
15132;SDS011;7667;51.232;17.110;2023-08-06T10:53:43;1.50;;;0.60;;
15132;SDS011;7667;51.232;17.110;2023-08-06T10:58:45;0.83;;;0.60;;
15132;SDS011;7667;51.232;17.110;2023-08-06T11:01:14;1.10;;;0.70;;
15132;SDS011;7667;51.232;17.110;2023-08-06T11:03:42;0.50;;;0.50;;
15132;SDS011;7667;51.232;17.110;2023-08-06T11:06:16;0.50;;;0.50;;
15132;SDS011;7667;51.232;17.110;2023-08-06T11:08:54;1.13;;;0.50;;
15132;SDS011;7667;51.232;17.110;2023-08-06T11:11:22;0.77;;;0.60;;
15132;SDS011;7667;51.232;17.110;2023-08-06T11:13:50;0.40;;;0.40;;
15132;SDS011;7667;51.232;17.110;2023-08-06T11:16:20;0.80;;;0.43;;
15132;SDS011;7667;51.232;17.110;2023-08-06T11:18:53;0.87;;;0.30;;
15132;SDS011;7667;51.232;17.110;2023-08-06T11:21:23;0.80;;;0.63;;
15132;SDS011;7667;51.232;17.110;2023-08-06T11:23:53;0.87;;;0.50;;
15132;SDS011;7667;51.232;17.110;2023-08-06T11:26:22;0.40;;;0.40;;
15132;SDS011;7667;51.232;17.110;2023-08-06T11:28:50;0.57;;;0.40;;
15132;SDS011;7667;51.232;17.110;2023-08-06T11:31:21;0.40;;;0.40;;
15132;SDS011;7667;51.232;17.110;2023-08-06T11:33:53;0.50;;;0.50;;
15132;SDS011;7667;51.232;17.110;2023-08-06T11:39:00;0.40;;;0.40;;
15132;SDS011;7667;51.232;17.110;2023-08-06T11:41:32;0.40;;;0.40;;
15132;SDS011;7667;51.232;17.110;2023-08-06T11:44:00;1.07;;;0.40;;
15132;SDS011;7667;51.232;17.110;2023-08-06T11:46:27;0.33;;;0.33;;
15132;SDS011;7667;51.232;17.110;2023-08-06T11:48:56;0.57;;;0.50;;
15132;SDS011;7667;51.232;17.110;2023-08-06T11:51:26;1.07;;;0.40;;
15132;SDS011;7667;51.232;17.110;2023-08-06T11:53:57;0.50;;;0.40;;
15132;SDS011;7667;51.232;17.110;2023-08-06T11:56:26;0.67;;;0.40;;
15132;SDS011;7667;51.232;17.110;2023-08-06T11:58:54;0.40;;;0.40;;
15132;SDS011;7667;51.232;17.110;2023-08-06T12:01:22;0.60;;;0.40;;
15132;SDS011;7667;51.232;17.110;2023-08-06T12:03:51;0.47;;;0.43;;
15132;SDS011;7667;51.232;17.110;2023-08-06T12:06:19;0.40;;;0.40;;
15132;SDS011;7667;51.232;17.110;2023-08-06T12:08:46;0.30;;;0.30;;
15132;SDS011;7667;51.232;17.110;2023-08-06T12:11:14;0.30;;;0.30;;
15132;SDS011;7667;51.232;17.110;2023-08-06T12:13:42;0.40;;;0.40;;
15132;SDS011;7667;51.232;17.110;2023-08-06T12:16:10;0.47;;;0.40;;
15132;SDS011;7667;51.232;17.110;2023-08-06T12:18:37;0.40;;;0.40;;
15132;SDS011;7667;51.232;17.110;2023-08-06T12:21:05;0.50;;;0.40;;
15132;SDS011;7667;51.232;17.110;2023-08-06T12:23:32;1.03;;;0.40;;
15132;SDS011;7667;51.232;17.110;2023-08-06T12:26:00;0.30;;;0.30;;
15132;SDS011;7667;51.232;17.110;2023-08-06T12:28:27;0.37;;;0.37;;
15132;SDS011;7667;51.232;17.110;2023-08-06T12:30:55;0.30;;;0.30;;
15132;SDS011;7667;51.232;17.110;2023-08-06T12:33:23;0.30;;;0.30;;
15132;SDS011;7667;51.232;17.110;2023-08-06T12:35:50;1.13;;;0.47;;
15132;SDS011;7667;51.232;17.110;2023-08-06T12:38:21;0.30;;;0.30;;
15132;SDS011;7667;51.232;17.110;2023-08-06T12:40:49;0.87;;;0.40;;
15132;SDS011;7667;51.232;17.110;2023-08-06T12:43:17;0.40;;;0.40;;
15132;SDS011;7667;51.232;17.110;2023-08-06T12:45:44;0.40;;;0.40;;
15132;SDS011;7667;51.232;17.110;2023-08-06T12:48:13;0.43;;;0.40;;
15132;SDS011;7667;51.232;17.110;2023-08-06T12:50:41;0.40;;;0.40;;
15132;SDS011;7667;51.232;17.110;2023-08-06T12:53:08;0.40;;;0.40;;
15132;SDS011;7667;51.232;17.110;2023-08-06T12:55:36;0.70;;;0.60;;
15132;SDS011;7667;51.232;17.110;2023-08-06T12:58:04;0.90;;;0.60;;
15132;SDS011;7667;51.232;17.110;2023-08-06T13:00:31;0.50;;;0.50;;
15132;SDS011;7667;51.232;17.110;2023-08-06T13:02:59;0.50;;;0.50;;
15132;SDS011;7667;51.232;17.110;2023-08-06T13:05:26;0.50;;;0.50;;
15132;SDS011;7667;51.232;17.110;2023-08-06T13:07:54;0.63;;;0.50;;
15132;SDS011;7667;51.232;17.110;2023-08-06T13:10:22;0.50;;;0.50;;
15132;SDS011;7667;51.232;17.110;2023-08-06T13:12:51;0.50;;;0.50;;
15132;SDS011;7667;51.232;17.110;2023-08-06T13:15:18;0.73;;;0.50;;
15132;SDS011;7667;51.232;17.110;2023-08-06T13:17:47;0.60;;;0.60;;
15132;SDS011;7667;51.232;17.110;2023-08-06T13:20:15;0.50;;;0.50;;
15132;SDS011;7667;51.232;17.110;2023-08-06T13:22:46;0.70;;;0.70;;
15132;SDS011;7667;51.232;17.110;2023-08-06T13:25:17;0.60;;;0.60;;
15132;SDS011;7667;51.232;17.110;2023-08-06T13:27:45;0.90;;;0.70;;
15132;SDS011;7667;51.232;17.110;2023-08-06T13:30:14;0.60;;;0.60;;
15132;SDS011;7667;51.232;17.110;2023-08-06T13:32:44;0.97;;;0.60;;
15132;SDS011;7667;51.232;17.110;2023-08-06T13:35:12;0.60;;;0.60;;
15132;SDS011;7667;51.232;17.110;2023-08-06T13:37:40;0.60;;;0.60;;
15132;SDS011;7667;51.232;17.110;2023-08-06T13:40:07;0.60;;;0.60;;
15132;SDS011;7667;51.232;17.110;2023-08-06T13:42:35;0.87;;;0.67;;
15132;SDS011;7667;51.232;17.110;2023-08-06T13:45:03;0.93;;;0.87;;
15132;SDS011;7667;51.232;17.110;2023-08-06T13:47:32;0.80;;;0.80;;
15132;SDS011;7667;51.232;17.110;2023-08-06T13:50:00;0.73;;;0.70;;
15132;SDS011;7667;51.232;17.110;2023-08-06T13:52:29;0.80;;;0.80;;
15132;SDS011;7667;51.232;17.110;2023-08-06T13:54:56;0.80;;;0.80;;
15132;SDS011;7667;51.232;17.110;2023-08-06T13:57:23;0.70;;;0.70;;
15132;SDS011;7667;51.232;17.110;2023-08-06T13:59:51;0.83;;;0.70;;
15132;SDS011;7667;51.232;17.110;2023-08-06T14:02:18;0.60;;;0.60;;
15132;SDS011;7667;51.232;17.110;2023-08-06T14:04:46;0.80;;;0.73;;
15132;SDS011;7667;51.232;17.110;2023-08-06T14:07:14;0.90;;;0.80;;
15132;SDS011;7667;51.232;17.110;2023-08-06T14:09:41;0.90;;;0.77;;
15132;SDS011;7667;51.232;17.110;2023-08-06T14:12:10;0.70;;;0.70;;
15132;SDS011;7667;51.232;17.110;2023-08-06T14:14:38;0.83;;;0.70;;
15132;SDS011;7667;51.232;17.110;2023-08-06T14:17:06;0.63;;;0.63;;
15132;SDS011;7667;51.232;17.110;2023-08-06T14:19:34;0.63;;;0.60;;
15132;SDS011;7667;51.232;17.110;2023-08-06T14:22:01;0.60;;;0.60;;
15132;SDS011;7667;51.232;17.110;2023-08-06T14:24:29;0.53;;;0.53;;
15132;SDS011;7667;51.232;17.110;2023-08-06T14:26:56;0.63;;;0.60;;
15132;SDS011;7667;51.232;17.110;2023-08-06T14:29:24;0.50;;;0.50;;
15132;SDS011;7667;51.232;17.110;2023-08-06T14:31:51;0.80;;;0.60;;
15132;SDS011;7667;51.232;17.110;2023-08-06T14:34:19;0.53;;;0.53;;
15132;SDS011;7667;51.232;17.110;2023-08-06T14:36:46;0.93;;;0.60;;
15132;SDS011;7667;51.232;17.110;2023-08-06T14:39:14;1.57;;;0.73;;
15132;SDS011;7667;51.232;17.110;2023-08-06T14:41:41;0.70;;;0.70;;
15132;SDS011;7667;51.232;17.110;2023-08-06T14:44:09;0.80;;;0.80;;
15132;SDS011;7667;51.232;17.110;2023-08-06T14:46:36;0.80;;;0.80;;
15132;SDS011;7667;51.232;17.110;2023-08-06T14:49:04;1.10;;;0.80;;
15132;SDS011;7667;51.232;17.110;2023-08-06T14:51:32;0.77;;;0.77;;
15132;SDS011;7667;51.232;17.110;2023-08-06T14:54:01;0.80;;;0.70;;
15132;SDS011;7667;51.232;17.110;2023-08-06T14:56:28;0.97;;;0.77;;
15132;SDS011;7667;51.232;17.110;2023-08-06T14:58:56;0.77;;;0.77;;
15132;SDS011;7667;51.232;17.110;2023-08-06T15:01:24;1.50;;;1.20;;
15132;SDS011;7667;51.232;17.110;2023-08-06T15:03:51;0.90;;;0.90;;
15132;SDS011;7667;51.232;17.110;2023-08-06T15:06:19;1.10;;;1.00;;
15132;SDS011;7667;51.232;17.110;2023-08-06T15:08:46;1.20;;;1.10;;
15132;SDS011;7667;51.232;17.110;2023-08-06T15:11:14;1.20;;;1.10;;
15132;SDS011;7667;51.232;17.110;2023-08-06T15:13:42;0.93;;;0.93;;
15132;SDS011;7667;51.232;17.110;2023-08-06T15:16:10;1.30;;;1.20;;
15132;SDS011;7667;51.232;17.110;2023-08-06T15:18:37;1.20;;;1.10;;